createdAt,value
2018-04-07T20:02:16.381Z,19.10
2018-04-07T20:04:41.945Z,19.50
2018-04-07T20:07:07.583Z,19.45
2018-04-07T20:09:33.384Z,19.25
2018-04-07T20:11:58.942Z,19.30
2018-04-07T20:14:24.496Z,19.20
2018-04-07T20:16:50.215Z,19.03
2018-04-07T20:19:16.206Z,18.93
2018-04-07T20:21:41.761Z,18.87
2018-04-07T20:24:07.733Z,18.86
2018-04-07T20:26:33.309Z,18.77
2018-04-07T20:28:59.454Z,18.77
2018-04-07T20:31:25.246Z,18.73
2018-04-07T20:33:50.815Z,18.93
2018-04-07T20:36:16.424Z,18.71
2018-04-07T20:38:42.330Z,18.63
2018-04-07T20:41:07.871Z,18.55
2018-04-07T20:43:33.423Z,18.49
2018-04-07T20:45:59.238Z,18.44
2018-04-07T20:48:24.797Z,18.65
2018-04-07T20:50:50.508Z,18.45
2018-04-07T20:53:16.458Z,18.34
2018-04-07T20:55:42.023Z,18.32
2018-04-07T20:58:07.717Z,18.27
2018-04-07T21:00:33.505Z,18.24
2018-04-07T21:03:01.224Z,18.14
2018-04-07T21:05:26.941Z,18.07
2018-04-07T21:07:52.706Z,18.11
2018-04-07T21:10:18.333Z,18.03
2018-04-07T21:12:43.913Z,17.97
2018-04-07T21:15:11.942Z,18.01
2018-04-07T21:17:39.155Z,17.91
2018-04-07T21:20:04.906Z,17.95
2018-04-07T21:22:31.388Z,17.97
2018-04-07T21:24:56.973Z,17.86
2018-04-07T21:27:22.475Z,17.88
2018-04-07T21:29:48.675Z,17.72
2018-04-07T21:32:14.247Z,17.68
2018-04-07T21:34:39.794Z,17.63
2018-04-07T21:37:05.543Z,17.56
2018-04-07T21:39:31.084Z,17.57
2018-04-07T21:41:56.644Z,17.63
2018-04-07T21:44:22.341Z,17.58
2018-04-07T21:46:47.872Z,17.53
2018-04-07T21:49:13.417Z,17.45
2018-04-07T21:51:39.201Z,17.49
2018-04-07T21:54:04.751Z,17.58
2018-04-07T21:56:30.303Z,17.28
2018-04-07T21:58:56.182Z,17.00
2018-04-07T22:01:21.736Z,17.00
2018-04-07T22:03:47.770Z,16.89
2018-04-07T22:06:13.568Z,16.79
2018-04-07T22:08:39.186Z,16.74
2018-04-07T22:11:04.809Z,16.74
2018-04-07T22:13:30.549Z,16.85
2018-04-07T22:15:56.122Z,16.77
2018-04-07T22:18:21.666Z,16.75
2018-04-07T22:20:50.664Z,16.91
2018-04-07T22:23:19.634Z,16.73
2018-04-07T22:25:46.664Z,16.72
2018-04-07T22:28:12.586Z,16.67
2018-04-07T22:30:38.154Z,16.75
2018-04-07T22:33:19.213Z,16.58
2018-04-07T22:35:44.758Z,16.54
2018-04-07T22:38:10.315Z,16.46
2018-04-07T22:40:36.193Z,16.44
2018-04-07T22:43:01.730Z,16.44
2018-04-07T22:45:27.292Z,16.37
2018-04-07T22:47:52.987Z,16.53
2018-04-07T22:50:18.538Z,16.44
2018-04-07T22:52:44.124Z,16.47
2018-04-07T22:55:09.900Z,16.34
2018-04-07T22:57:35.435Z,16.31
2018-04-07T23:00:00.981Z,16.28
2018-04-07T23:02:27.022Z,16.27
2018-04-07T23:04:53.361Z,16.36
2018-04-07T23:07:18.930Z,16.34
2018-04-07T23:09:44.839Z,16.24
2018-04-07T23:12:10.370Z,16.32
2018-04-07T23:14:35.929Z,16.26
2018-04-07T23:17:01.815Z,16.42
2018-04-07T23:19:27.332Z,16.33
2018-04-07T23:21:52.938Z,16.22
2018-04-07T23:24:18.698Z,16.13
2018-04-07T23:26:44.257Z,16.05
2018-04-07T23:29:09.824Z,15.95
2018-04-07T23:31:35.734Z,15.76
2018-04-07T23:34:01.359Z,15.61
2018-04-07T23:36:26.901Z,15.43
2018-04-07T23:38:52.762Z,15.37
2018-04-07T23:41:18.410Z,15.40
2018-04-07T23:43:43.963Z,15.45
2018-04-07T23:46:09.675Z,15.40
2018-04-07T23:48:35.288Z,15.31
2018-04-07T23:51:00.894Z,15.35
2018-04-07T23:53:26.616Z,15.42
2018-04-07T23:55:52.212Z,15.41
2018-04-07T23:58:17.757Z,15.47
